sensor_id;sensor_type;location;lat;lon;timestamp;temperature;humidity
27671;DHT22;15077;49.704;9.908;2022-08-05T00:01:16;29.40;33.80
27671;DHT22;15077;49.704;9.908;2022-08-05T00:03:43;29.40;34.00
27671;DHT22;15077;49.704;9.908;2022-08-05T00:06:09;29.30;34.00
27671;DHT22;15077;49.704;9.908;2022-08-05T00:08:36;29.20;34.00
27671;DHT22;15077;49.704;9.908;2022-08-05T00:11:06;29.10;34.10
27671;DHT22;15077;49.704;9.908;2022-08-05T00:13:35;29.00;34.30
27671;DHT22;15077;49.704;9.908;2022-08-05T00:16:03;29.00;34.40
27671;DHT22;15077;49.704;9.908;2022-08-05T00:18:30;28.90;34.40
27671;DHT22;15077;49.704;9.908;2022-08-05T00:20:55;28.90;34.50
27671;DHT22;15077;49.704;9.908;2022-08-05T00:23:23;28.80;34.60
27671;DHT22;15077;49.704;9.908;2022-08-05T00:25:49;28.80;34.70
27671;DHT22;15077;49.704;9.908;2022-08-05T00:28:15;28.80;34.90
27671;DHT22;15077;49.704;9.908;2022-08-05T00:30:41;28.70;35.00
27671;DHT22;15077;49.704;9.908;2022-08-05T00:33:08;28.70;35.10
27671;DHT22;15077;49.704;9.908;2022-08-05T00:35:34;28.70;35.30
27671;DHT22;15077;49.704;9.908;2022-08-05T00:38:00;28.60;35.30
27671;DHT22;15077;49.704;9.908;2022-08-05T00:40:27;28.60;35.40
27671;DHT22;15077;49.704;9.908;2022-08-05T00:42:54;28.50;35.60
27671;DHT22;15077;49.704;9.908;2022-08-05T00:45:24;28.50;35.50
27671;DHT22;15077;49.704;9.908;2022-08-05T00:47:51;28.50;35.60
27671;DHT22;15077;49.704;9.908;2022-08-05T00:50:17;28.40;35.70
27671;DHT22;15077;49.704;9.908;2022-08-05T00:52:42;28.40;35.80
27671;DHT22;15077;49.704;9.908;2022-08-05T00:55:08;28.40;35.90
27671;DHT22;15077;49.704;9.908;2022-08-05T00:57:34;28.40;36.00
27671;DHT22;15077;49.704;9.908;2022-08-05T01:00:00;28.30;36.10
27671;DHT22;15077;49.704;9.908;2022-08-05T01:02:26;28.30;36.10
27671;DHT22;15077;49.704;9.908;2022-08-05T01:04:51;28.30;36.20
27671;DHT22;15077;49.704;9.908;2022-08-05T01:07:17;28.30;36.20
27671;DHT22;15077;49.704;9.908;2022-08-05T01:09:43;28.30;36.50
27671;DHT22;15077;49.704;9.908;2022-08-05T01:12:13;28.30;36.60
27671;DHT22;15077;49.704;9.908;2022-08-05T01:14:58;28.30;36.70
27671;DHT22;15077;49.704;9.908;2022-08-05T01:17:39;28.30;36.70
27671;DHT22;15077;49.704;9.908;2022-08-05T01:23:15;28.30;36.40
27671;DHT22;15077;49.704;9.908;2022-08-05T01:29:07;28.20;36.50
27671;DHT22;15077;49.704;9.908;2022-08-05T01:31:42;28.20;36.90
27671;DHT22;15077;49.704;9.908;2022-08-05T01:34:37;28.20;37.00
27671;DHT22;15077;49.704;9.908;2022-08-05T01:37:15;28.20;36.90
27671;DHT22;15077;49.704;9.908;2022-08-05T01:39:45;28.20;37.10
27671;DHT22;15077;49.704;9.908;2022-08-05T01:42:16;28.20;37.10
27671;DHT22;15077;49.704;9.908;2022-08-05T01:44:45;28.10;37.40
27671;DHT22;15077;49.704;9.908;2022-08-05T01:47:15;28.20;37.60
27671;DHT22;15077;49.704;9.908;2022-08-05T01:49:45;28.20;37.90
27671;DHT22;15077;49.704;9.908;2022-08-05T01:52:15;28.20;38.20
27671;DHT22;15077;49.704;9.908;2022-08-05T01:54:50;28.20;38.90
27671;DHT22;15077;49.704;9.908;2022-08-05T01:57:24;28.20;39.30
27671;DHT22;15077;49.704;9.908;2022-08-05T01:59:56;28.20;39.80
27671;DHT22;15077;49.704;9.908;2022-08-05T02:02:24;28.20;40.00
27671;DHT22;15077;49.704;9.908;2022-08-05T02:04:54;28.20;40.40
27671;DHT22;15077;49.704;9.908;2022-08-05T02:07:22;28.30;40.50
27671;DHT22;15077;49.704;9.908;2022-08-05T02:09:49;28.30;41.00
27671;DHT22;15077;49.704;9.908;2022-08-05T02:12:20;28.30;41.10
27671;DHT22;15077;49.704;9.908;2022-08-05T02:15:04;28.30;41.50
27671;DHT22;15077;49.704;9.908;2022-08-05T02:20:26;28.20;42.10
27671;DHT22;15077;49.704;9.908;2022-08-05T02:22:59;28.20;42.80
27671;DHT22;15077;49.704;9.908;2022-08-05T02:25:34;28.20;43.00
27671;DHT22;15077;49.704;9.908;2022-08-05T02:28:06;28.20;43.20
27671;DHT22;15077;49.704;9.908;2022-08-05T02:30:46;28.10;43.20
27671;DHT22;15077;49.704;9.908;2022-08-05T02:33:19;28.10;43.10
27671;DHT22;15077;49.704;9.908;2022-08-05T02:35:47;28.10;43.60
27671;DHT22;15077;49.704;9.908;2022-08-05T02:38:15;28.10;43.40
27671;DHT22;15077;49.704;9.908;2022-08-05T02:40:43;28.10;43.90
27671;DHT22;15077;49.704;9.908;2022-08-05T02:43:12;28.10;44.00
27671;DHT22;15077;49.704;9.908;2022-08-05T02:45:42;28.10;43.70
27671;DHT22;15077;49.704;9.908;2022-08-05T02:48:09;28.10;43.90
27671;DHT22;15077;49.704;9.908;2022-08-05T02:50:36;28.10;43.80
27671;DHT22;15077;49.704;9.908;2022-08-05T02:53:03;28.10;43.90
27671;DHT22;15077;49.704;9.908;2022-08-05T02:55:31;28.10;44.20
27671;DHT22;15077;49.704;9.908;2022-08-05T02:57:59;28.10;43.80
27671;DHT22;15077;49.704;9.908;2022-08-05T03:00:26;28.10;44.20
27671;DHT22;15077;49.704;9.908;2022-08-05T03:02:53;28.10;44.50
27671;DHT22;15077;49.704;9.908;2022-08-05T03:05:21;28.10;44.20
27671;DHT22;15077;49.704;9.908;2022-08-05T03:07:48;28.10;43.90
27671;DHT22;15077;49.704;9.908;2022-08-05T03:10:15;28.10;44.20
27671;DHT22;15077;49.704;9.908;2022-08-05T03:12:41;28.10;44.00
27671;DHT22;15077;49.704;9.908;2022-08-05T03:15:09;28.20;44.20
27671;DHT22;15077;49.704;9.908;2022-08-05T03:17:36;28.20;44.40
27671;DHT22;15077;49.704;9.908;2022-08-05T03:20:03;28.20;45.10
27671;DHT22;15077;49.704;9.908;2022-08-05T03:22:30;28.20;44.90
27671;DHT22;15077;49.704;9.908;2022-08-05T03:24:56;28.20;44.50
27671;DHT22;15077;49.704;9.908;2022-08-05T03:27:22;28.20;45.00
27671;DHT22;15077;49.704;9.908;2022-08-05T03:29:49;28.10;44.40
27671;DHT22;15077;49.704;9.908;2022-08-05T03:32:16;28.20;45.00
27671;DHT22;15077;49.704;9.908;2022-08-05T03:34:44;28.20;45.60
27671;DHT22;15077;49.704;9.908;2022-08-05T03:37:11;28.20;45.60
27671;DHT22;15077;49.704;9.908;2022-08-05T03:39:37;28.10;45.50
27671;DHT22;15077;49.704;9.908;2022-08-05T03:42:03;28.10;45.20
27671;DHT22;15077;49.704;9.908;2022-08-05T03:44:29;28.10;45.50
27671;DHT22;15077;49.704;9.908;2022-08-05T03:46:55;28.10;45.00
27671;DHT22;15077;49.704;9.908;2022-08-05T03:49:20;28.10;44.80
27671;DHT22;15077;49.704;9.908;2022-08-05T03:51:57;28.10;45.10
27671;DHT22;15077;49.704;9.908;2022-08-05T03:54:36;28.10;44.80
27671;DHT22;15077;49.704;9.908;2022-08-05T03:57:09;28.10;44.80
27671;DHT22;15077;49.704;9.908;2022-08-05T03:59:41;28.10;44.80
27671;DHT22;15077;49.704;9.908;2022-08-05T04:02:09;28.10;44.90
27671;DHT22;15077;49.704;9.908;2022-08-05T04:04:37;28.20;44.30
27671;DHT22;15077;49.704;9.908;2022-08-05T04:07:05;28.20;44.60
27671;DHT22;15077;49.704;9.908;2022-08-05T04:09:31;28.10;44.60
27671;DHT22;15077;49.704;9.908;2022-08-05T04:11:58;28.20;44.60
27671;DHT22;15077;49.704;9.908;2022-08-05T04:14:25;28.20;44.60
27671;DHT22;15077;49.704;9.908;2022-08-05T04:16:52;28.20;44.60
27671;DHT22;15077;49.704;9.908;2022-08-05T04:19:18;28.20;44.60
27671;DHT22;15077;49.704;9.908;2022-08-05T04:21:45;28.20;44.60
27671;DHT22;15077;49.704;9.908;2022-08-05T04:24:11;28.20;44.70
27671;DHT22;15077;49.704;9.908;2022-08-05T04:26:37;28.20;44.80
27671;DHT22;15077;49.704;9.908;2022-08-05T04:29:03;28.20;44.80
27671;DHT22;15077;49.704;9.908;2022-08-05T04:31:28;28.20;44.70
27671;DHT22;15077;49.704;9.908;2022-08-05T04:33:54;28.20;44.60
27671;DHT22;15077;49.704;9.908;2022-08-05T04:36:20;28.20;44.80
27671;DHT22;15077;49.704;9.908;2022-08-05T04:38:46;28.20;44.80
27671;DHT22;15077;49.704;9.908;2022-08-05T04:41:11;28.20;45.00
27671;DHT22;15077;49.704;9.908;2022-08-05T04:43:38;28.20;45.10
27671;DHT22;15077;49.704;9.908;2022-08-05T04:46:05;28.20;45.20
27671;DHT22;15077;49.704;9.908;2022-08-05T04:48:31;28.20;45.60
27671;DHT22;15077;49.704;9.908;2022-08-05T04:50:57;28.20;45.80
27671;DHT22;15077;49.704;9.908;2022-08-05T04:53:23;28.20;46.10
27671;DHT22;15077;49.704;9.908;2022-08-05T04:55:48;28.20;46.20
27671;DHT22;15077;49.704;9.908;2022-08-05T04:58:16;28.20;46.30
27671;DHT22;15077;49.704;9.908;2022-08-05T05:00:43;28.20;46.30
27671;DHT22;15077;49.704;9.908;2022-08-05T05:03:09;28.20;46.50
27671;DHT22;15077;49.704;9.908;2022-08-05T05:05:36;28.20;46.50
27671;DHT22;15077;49.704;9.908;2022-08-05T05:08:06;28.20;46.70
27671;DHT22;15077;49.704;9.908;2022-08-05T05:13:12;28.20;46.80
27671;DHT22;15077;49.704;9.908;2022-08-05T05:15:39;28.30;46.90
27671;DHT22;15077;49.704;9.908;2022-08-05T05:18:06;28.30;46.80
27671;DHT22;15077;49.704;9.908;2022-08-05T05:20:33;28.30;46.70
27671;DHT22;15077;49.704;9.908;2022-08-05T05:23:01;28.30;46.60
27671;DHT22;15077;49.704;9.908;2022-08-05T05:25:31;28.30;46.90
27671;DHT22;15077;49.704;9.908;2022-08-05T05:27:57;28.30;46.80
27671;DHT22;15077;49.704;9.908;2022-08-05T05:30:23;28.30;46.80
27671;DHT22;15077;49.704;9.908;2022-08-05T05:32:49;28.40;47.50
27671;DHT22;15077;49.704;9.908;2022-08-05T05:35:15;28.40;47.00
27671;DHT22;15077;49.704;9.908;2022-08-05T05:37:52;28.40;47.50
27671;DHT22;15077;49.704;9.908;2022-08-05T05:40:21;28.40;46.80
27671;DHT22;15077;49.704;9.908;2022-08-05T05:42:49;28.50;46.90
27671;DHT22;15077;49.704;9.908;2022-08-05T05:45:15;28.50;46.80
27671;DHT22;15077;49.704;9.908;2022-08-05T05:47:42;28.60;46.90
27671;DHT22;15077;49.704;9.908;2022-08-05T05:50:10;28.60;46.70
27671;DHT22;15077;49.704;9.908;2022-08-05T05:52:38;28.60;46.60
27671;DHT22;15077;49.704;9.908;2022-08-05T05:55:06;28.60;46.50
27671;DHT22;15077;49.704;9.908;2022-08-05T05:57:34;28.70;46.40
27671;DHT22;15077;49.704;9.908;2022-08-05T06:00:01;28.70;46.40
27671;DHT22;15077;49.704;9.908;2022-08-05T06:02:27;28.70;46.30
27671;DHT22;15077;49.704;9.908;2022-08-05T06:04:52;28.80;46.40
27671;DHT22;15077;49.704;9.908;2022-08-05T06:07:18;28.70;46.30
27671;DHT22;15077;49.704;9.908;2022-08-05T06:09:44;28.70;46.20
27671;DHT22;15077;49.704;9.908;2022-08-05T06:12:10;28.70;46.20
27671;DHT22;15077;49.704;9.908;2022-08-05T06:14:36;28.70;46.20
27671;DHT22;15077;49.704;9.908;2022-08-05T06:17:02;28.70;46.30
27671;DHT22;15077;49.704;9.908;2022-08-05T06:19:28;28.70;46.30
27671;DHT22;15077;49.704;9.908;2022-08-05T06:21:54;28.80;46.40
27671;DHT22;15077;49.704;9.908;2022-08-05T06:24:20;28.80;46.40
27671;DHT22;15077;49.704;9.908;2022-08-05T06:26:46;28.70;46.20
27671;DHT22;15077;49.704;9.908;2022-08-05T06:29:11;28.80;46.40
27671;DHT22;15077;49.704;9.908;2022-08-05T06:31:37;28.70;46.40
27671;DHT22;15077;49.704;9.908;2022-08-05T06:34:03;28.70;46.40
27671;DHT22;15077;49.704;9.908;2022-08-05T06:36:30;28.70;46.40
27671;DHT22;15077;49.704;9.908;2022-08-05T06:38:55;28.70;46.60
27671;DHT22;15077;49.704;9.908;2022-08-05T06:41:21;28.70;46.50
27671;DHT22;15077;49.704;9.908;2022-08-05T06:43:48;28.70;46.60
27671;DHT22;15077;49.704;9.908;2022-08-05T06:46:14;28.70;46.70
27671;DHT22;15077;49.704;9.908;2022-08-05T06:48:40;28.70;46.80
27671;DHT22;15077;49.704;9.908;2022-08-05T06:51:06;28.70;46.80
27671;DHT22;15077;49.704;9.908;2022-08-05T06:53:32;28.70;46.80
27671;DHT22;15077;49.704;9.908;2022-08-05T06:56:00;28.70;46.70
27671;DHT22;15077;49.704;9.908;2022-08-05T06:58:28;28.80;46.80
27671;DHT22;15077;49.704;9.908;2022-08-05T07:00:56;28.80;47.00
27671;DHT22;15077;49.704;9.908;2022-08-05T07:03:23;28.80;47.00
27671;DHT22;15077;49.704;9.908;2022-08-05T07:05:49;28.80;47.10
27671;DHT22;15077;49.704;9.908;2022-08-05T07:08:14;28.80;47.10
27671;DHT22;15077;49.704;9.908;2022-08-05T07:10:40;28.80;47.00
27671;DHT22;15077;49.704;9.908;2022-08-05T07:13:06;28.80;47.00
27671;DHT22;15077;49.704;9.908;2022-08-05T07:15:51;28.90;47.10
27671;DHT22;15077;49.704;9.908;2022-08-05T07:18:35;28.90;47.00
27671;DHT22;15077;49.704;9.908;2022-08-05T07:21:00;28.90;46.90
27671;DHT22;15077;49.704;9.908;2022-08-05T07:23:27;29.00;47.10
27671;DHT22;15077;49.704;9.908;2022-08-05T07:25:53;29.00;47.60
27671;DHT22;15077;49.704;9.908;2022-08-05T07:28:19;29.00;47.00
27671;DHT22;15077;49.704;9.908;2022-08-05T07:30:44;29.10;47.10
27671;DHT22;15077;49.704;9.908;2022-08-05T07:33:11;29.10;47.00
27671;DHT22;15077;49.704;9.908;2022-08-05T07:35:38;29.20;47.00
27671;DHT22;15077;49.704;9.908;2022-08-05T07:38:04;29.20;46.90
27671;DHT22;15077;49.704;9.908;2022-08-05T07:40:30;29.30;47.00
27671;DHT22;15077;49.704;9.908;2022-08-05T07:42:57;29.30;47.00
27671;DHT22;15077;49.704;9.908;2022-08-05T07:45:22;29.30;47.00
27671;DHT22;15077;49.704;9.908;2022-08-05T07:47:48;29.40;47.10
27671;DHT22;15077;49.704;9.908;2022-08-05T07:50:14;29.40;47.00
27671;DHT22;15077;49.704;9.908;2022-08-05T07:52:41;29.50;46.90
27671;DHT22;15077;49.704;9.908;2022-08-05T07:55:09;29.50;47.00
27671;DHT22;15077;49.704;9.908;2022-08-05T07:57:35;29.60;47.00
27671;DHT22;15077;49.704;9.908;2022-08-05T08:00:03;29.70;46.80
27671;DHT22;15077;49.704;9.908;2022-08-05T08:02:31;29.80;46.70
27671;DHT22;15077;49.704;9.908;2022-08-05T08:04:57;29.80;46.70
27671;DHT22;15077;49.704;9.908;2022-08-05T08:07:23;29.80;46.60
27671;DHT22;15077;49.704;9.908;2022-08-05T08:09:51;29.90;46.60
27671;DHT22;15077;49.704;9.908;2022-08-05T08:12:17;30.00;46.50
27671;DHT22;15077;49.704;9.908;2022-08-05T08:14:44;30.10;46.30
27671;DHT22;15077;49.704;9.908;2022-08-05T08:17:10;30.10;45.70
27671;DHT22;15077;49.704;9.908;2022-08-05T08:19:37;30.20;45.40
27671;DHT22;15077;49.704;9.908;2022-08-05T08:22:04;30.20;45.30
27671;DHT22;15077;49.704;9.908;2022-08-05T08:24:31;30.30;45.20
27671;DHT22;15077;49.704;9.908;2022-08-05T08:26:57;30.30;45.20
27671;DHT22;15077;49.704;9.908;2022-08-05T08:29:23;30.40;45.10
27671;DHT22;15077;49.704;9.908;2022-08-05T08:31:50;30.50;45.10
27671;DHT22;15077;49.704;9.908;2022-08-05T08:34:22;30.50;44.70
27671;DHT22;15077;49.704;9.908;2022-08-05T08:36:49;30.60;44.70
27671;DHT22;15077;49.704;9.908;2022-08-05T08:39:15;30.60;44.70
27671;DHT22;15077;49.704;9.908;2022-08-05T08:41:47;30.60;44.30
27671;DHT22;15077;49.704;9.908;2022-08-05T08:44:16;30.60;43.80
27671;DHT22;15077;49.704;9.908;2022-08-05T08:46:44;30.60;43.90
27671;DHT22;15077;49.704;9.908;2022-08-05T08:49:13;30.60;43.70
27671;DHT22;15077;49.704;9.908;2022-08-05T08:51:42;30.60;43.40
27671;DHT22;15077;49.704;9.908;2022-08-05T08:54:12;30.60;43.60
27671;DHT22;15077;49.704;9.908;2022-08-05T08:56:39;30.60;43.50
27671;DHT22;15077;49.704;9.908;2022-08-05T08:59:06;30.60;44.20
27671;DHT22;15077;49.704;9.908;2022-08-05T09:01:32;30.60;43.60
27671;DHT22;15077;49.704;9.908;2022-08-05T09:03:58;30.70;43.70
27671;DHT22;15077;49.704;9.908;2022-08-05T09:06:29;30.70;43.40
27671;DHT22;15077;49.704;9.908;2022-08-05T09:08:57;30.70;43.60
27671;DHT22;15077;49.704;9.908;2022-08-05T09:11:25;30.70;43.60
27671;DHT22;15077;49.704;9.908;2022-08-05T09:13:51;30.80;43.70
27671;DHT22;15077;49.704;9.908;2022-08-05T09:16:18;30.80;43.90
27671;DHT22;15077;49.704;9.908;2022-08-05T09:18:44;31.00;44.00
27671;DHT22;15077;49.704;9.908;2022-08-05T09:21:10;31.00;44.00
27671;DHT22;15077;49.704;9.908;2022-08-05T09:23:36;31.10;43.90
27671;DHT22;15077;49.704;9.908;2022-08-05T09:28:38;31.40;43.40
27671;DHT22;15077;49.704;9.908;2022-08-05T09:31:11;31.40;43.60
27671;DHT22;15077;49.704;9.908;2022-08-05T09:33:51;31.50;43.50
27671;DHT22;15077;49.704;9.908;2022-08-05T09:36:19;31.60;43.20
27671;DHT22;15077;49.704;9.908;2022-08-05T09:38:59;31.70;43.80
27671;DHT22;15077;49.704;9.908;2022-08-05T09:41:28;31.80;43.30
27671;DHT22;15077;49.704;9.908;2022-08-05T09:43:54;31.90;43.30
27671;DHT22;15077;49.704;9.908;2022-08-05T09:48:55;32.10;43.10
27671;DHT22;15077;49.704;9.908;2022-08-05T09:51:31;32.20;42.70
27671;DHT22;15077;49.704;9.908;2022-08-05T09:54:04;32.30;42.30
27671;DHT22;15077;49.704;9.908;2022-08-05T09:56:35;32.40;42.50
27671;DHT22;15077;49.704;9.908;2022-08-05T09:59:06;32.50;42.10
27671;DHT22;15077;49.704;9.908;2022-08-05T10:01:36;32.60;42.10
27671;DHT22;15077;49.704;9.908;2022-08-05T10:04:11;32.80;41.60
27671;DHT22;15077;49.704;9.908;2022-08-05T10:06:52;32.90;41.40
27671;DHT22;15077;49.704;9.908;2022-08-05T10:09:20;33.00;40.60
27671;DHT22;15077;49.704;9.908;2022-08-05T10:11:47;33.00;40.30
27671;DHT22;15077;49.704;9.908;2022-08-05T10:14:29;33.00;39.90
27671;DHT22;15077;49.704;9.908;2022-08-05T10:17:10;33.00;39.30
27671;DHT22;15077;49.704;9.908;2022-08-05T10:19:38;33.00;39.60
27671;DHT22;15077;49.704;9.908;2022-08-05T10:22:04;33.00;39.60
27671;DHT22;15077;49.704;9.908;2022-08-05T10:24:31;33.00;39.70
27671;DHT22;15077;49.704;9.908;2022-08-05T10:26:57;33.00;39.90
27671;DHT22;15077;49.704;9.908;2022-08-05T10:29:24;33.00;39.80
27671;DHT22;15077;49.704;9.908;2022-08-05T10:31:51;33.00;39.50
27671;DHT22;15077;49.704;9.908;2022-08-05T10:34:17;33.10;39.30
27671;DHT22;15077;49.704;9.908;2022-08-05T10:36:44;33.10;39.50
27671;DHT22;15077;49.704;9.908;2022-08-05T10:39:20;33.20;39.60
27671;DHT22;15077;49.704;9.908;2022-08-05T10:42:06;33.30;39.70
27671;DHT22;15077;49.704;9.908;2022-08-05T10:44:37;33.40;39.40
27671;DHT22;15077;49.704;9.908;2022-08-05T10:47:13;33.50;39.70
27671;DHT22;15077;49.704;9.908;2022-08-05T10:50:09;33.70;39.40
27671;DHT22;15077;49.704;9.908;2022-08-05T10:52:45;33.80;39.30
27671;DHT22;15077;49.704;9.908;2022-08-05T10:55:17;33.90;38.00
27671;DHT22;15077;49.704;9.908;2022-08-05T10:57:44;34.00;37.80
27671;DHT22;15077;49.704;9.908;2022-08-05T11:00:17;34.10;37.30
27671;DHT22;15077;49.704;9.908;2022-08-05T11:05:32;34.30;36.30
27671;DHT22;15077;49.704;9.908;2022-08-05T11:08:00;34.30;36.40
27671;DHT22;15077;49.704;9.908;2022-08-05T11:10:29;34.40;36.50
27671;DHT22;15077;49.704;9.908;2022-08-05T11:12:57;34.40;36.30
27671;DHT22;15077;49.704;9.908;2022-08-05T11:15:42;34.50;36.10
27671;DHT22;15077;49.704;9.908;2022-08-05T11:18:28;34.50;36.10
27671;DHT22;15077;49.704;9.908;2022-08-05T11:20:57;34.50;36.00
27671;DHT22;15077;49.704;9.908;2022-08-05T11:23:41;34.60;36.00
27671;DHT22;15077;49.704;9.908;2022-08-05T11:28:51;34.70;35.80
27671;DHT22;15077;49.704;9.908;2022-08-05T11:31:23;34.70;35.30
27671;DHT22;15077;49.704;9.908;2022-08-05T11:34:03;34.80;35.80
27671;DHT22;15077;49.704;9.908;2022-08-05T11:36:47;34.80;35.40
27671;DHT22;15077;49.704;9.908;2022-08-05T11:39:51;34.80;35.30
27671;DHT22;15077;49.704;9.908;2022-08-05T11:42:23;34.90;35.70
27671;DHT22;15077;49.704;9.908;2022-08-05T11:44:49;34.90;35.50
27671;DHT22;15077;49.704;9.908;2022-08-05T11:47:22;34.90;35.80
27671;DHT22;15077;49.704;9.908;2022-08-05T11:49:55;34.90;35.70
27671;DHT22;15077;49.704;9.908;2022-08-05T11:52:27;35.00;35.70
27671;DHT22;15077;49.704;9.908;2022-08-05T11:54:54;35.00;35.30
27671;DHT22;15077;49.704;9.908;2022-08-05T11:57:20;35.00;35.70
27671;DHT22;15077;49.704;9.908;2022-08-05T11:59:46;35.10;35.80
27671;DHT22;15077;49.704;9.908;2022-08-05T12:02:12;35.10;35.50
27671;DHT22;15077;49.704;9.908;2022-08-05T12:07:09;35.30;35.30
27671;DHT22;15077;49.704;9.908;2022-08-05T12:09:38;35.30;35.10
27671;DHT22;15077;49.704;9.908;2022-08-05T12:12:07;35.40;35.10
27671;DHT22;15077;49.704;9.908;2022-08-05T12:14:42;35.40;34.80
27671;DHT22;15077;49.704;9.908;2022-08-05T12:17:13;35.40;35.30
27671;DHT22;15077;49.704;9.908;2022-08-05T12:19:45;35.40;34.10
27671;DHT22;15077;49.704;9.908;2022-08-05T12:22:18;35.40;34.40
27671;DHT22;15077;49.704;9.908;2022-08-05T12:24:47;35.40;34.60
27671;DHT22;15077;49.704;9.908;2022-08-05T12:27:25;35.30;34.20
27671;DHT22;15077;49.704;9.908;2022-08-05T12:30:09;35.30;34.40
27671;DHT22;15077;49.704;9.908;2022-08-05T12:32:47;35.30;34.40
27671;DHT22;15077;49.704;9.908;2022-08-05T12:35:18;35.30;34.50
27671;DHT22;15077;49.704;9.908;2022-08-05T12:37:45;35.30;34.80
27671;DHT22;15077;49.704;9.908;2022-08-05T12:40:12;35.30;34.40
27671;DHT22;15077;49.704;9.908;2022-08-05T12:42:40;35.40;34.20
27671;DHT22;15077;49.704;9.908;2022-08-05T12:45:07;35.30;34.10
27671;DHT22;15077;49.704;9.908;2022-08-05T12:47:34;35.30;34.30
27671;DHT22;15077;49.704;9.908;2022-08-05T12:50:12;35.30;34.20
27671;DHT22;15077;49.704;9.908;2022-08-05T12:52:39;35.40;34.20
27671;DHT22;15077;49.704;9.908;2022-08-05T12:55:22;35.40;34.20
27671;DHT22;15077;49.704;9.908;2022-08-05T12:57:52;35.40;34.20
27671;DHT22;15077;49.704;9.908;2022-08-05T13:00:21;35.40;34.20
27671;DHT22;15077;49.704;9.908;2022-08-05T13:02:49;35.40;34.10
27671;DHT22;15077;49.704;9.908;2022-08-05T13:05:16;35.30;34.20
27671;DHT22;15077;49.704;9.908;2022-08-05T13:07:44;35.30;34.10
27671;DHT22;15077;49.704;9.908;2022-08-05T13:10:12;35.30;34.30
27671;DHT22;15077;49.704;9.908;2022-08-05T13:12:42;35.30;34.20
27671;DHT22;15077;49.704;9.908;2022-08-05T13:15:10;35.30;34.40
27671;DHT22;15077;49.704;9.908;2022-08-05T13:17:37;35.30;34.30
27671;DHT22;15077;49.704;9.908;2022-08-05T13:20:14;35.40;34.40
27671;DHT22;15077;49.704;9.908;2022-08-05T13:22:51;35.40;34.40
27671;DHT22;15077;49.704;9.908;2022-08-05T13:25:18;35.40;34.30
27671;DHT22;15077;49.704;9.908;2022-08-05T13:27:54;35.40;34.40
27671;DHT22;15077;49.704;9.908;2022-08-05T13:30:22;35.50;34.50
27671;DHT22;15077;49.704;9.908;2022-08-05T13:32:50;35.50;34.20
27671;DHT22;15077;49.704;9.908;2022-08-05T13:35:18;35.50;34.20
27671;DHT22;15077;49.704;9.908;2022-08-05T13:37:45;35.50;34.20
27671;DHT22;15077;49.704;9.908;2022-08-05T13:40:12;35.50;34.30
27671;DHT22;15077;49.704;9.908;2022-08-05T13:42:39;35.50;34.50
27671;DHT22;15077;49.704;9.908;2022-08-05T13:45:06;35.50;34.70
27671;DHT22;15077;49.704;9.908;2022-08-05T13:47:33;35.60;34.70
27671;DHT22;15077;49.704;9.908;2022-08-05T13:49:59;35.60;34.60
27671;DHT22;15077;49.704;9.908;2022-08-05T13:52:27;35.60;34.60
27671;DHT22;15077;49.704;9.908;2022-08-05T13:54:57;35.70;34.60
27671;DHT22;15077;49.704;9.908;2022-08-05T13:57:23;35.60;34.60
27671;DHT22;15077;49.704;9.908;2022-08-05T13:59:50;35.60;34.50
27671;DHT22;15077;49.704;9.908;2022-08-05T14:02:17;35.60;34.50
27671;DHT22;15077;49.704;9.908;2022-08-05T14:04:45;35.50;34.30
27671;DHT22;15077;49.704;9.908;2022-08-05T14:09:59;35.30;34.40
27671;DHT22;15077;49.704;9.908;2022-08-05T14:12:25;35.20;34.50
27671;DHT22;15077;49.704;9.908;2022-08-05T14:14:51;35.10;34.40
27671;DHT22;15077;49.704;9.908;2022-08-05T14:17:17;35.00;34.60
27671;DHT22;15077;49.704;9.908;2022-08-05T14:19:43;34.80;34.40
27671;DHT22;15077;49.704;9.908;2022-08-05T14:22:10;34.70;34.50
27671;DHT22;15077;49.704;9.908;2022-08-05T14:24:36;34.60;34.70
27671;DHT22;15077;49.704;9.908;2022-08-05T14:27:04;34.50;34.90
27671;DHT22;15077;49.704;9.908;2022-08-05T14:29:31;34.40;35.00
27671;DHT22;15077;49.704;9.908;2022-08-05T14:31:57;34.40;35.20
27671;DHT22;15077;49.704;9.908;2022-08-05T14:34:23;34.40;35.40
27671;DHT22;15077;49.704;9.908;2022-08-05T14:36:48;34.30;35.20
27671;DHT22;15077;49.704;9.908;2022-08-05T14:39:14;34.30;35.30
27671;DHT22;15077;49.704;9.908;2022-08-05T14:41:40;34.30;35.40
27671;DHT22;15077;49.704;9.908;2022-08-05T14:44:08;34.30;35.60
27671;DHT22;15077;49.704;9.908;2022-08-05T14:46:34;34.20;35.70
27671;DHT22;15077;49.704;9.908;2022-08-05T14:49:02;34.10;35.80
27671;DHT22;15077;49.704;9.908;2022-08-05T14:51:29;34.10;35.90
27671;DHT22;15077;49.704;9.908;2022-08-05T14:53:55;34.10;36.00
27671;DHT22;15077;49.704;9.908;2022-08-05T14:56:21;34.00;36.00
27671;DHT22;15077;49.704;9.908;2022-08-05T14:58:47;33.90;36.30
27671;DHT22;15077;49.704;9.908;2022-08-05T15:01:13;33.90;36.40
27671;DHT22;15077;49.704;9.908;2022-08-05T15:03:39;33.80;36.60
27671;DHT22;15077;49.704;9.908;2022-08-05T15:06:05;33.80;36.60
27671;DHT22;15077;49.704;9.908;2022-08-05T15:08:31;33.70;36.70
27671;DHT22;15077;49.704;9.908;2022-08-05T15:10:57;33.60;36.80
27671;DHT22;15077;49.704;9.908;2022-08-05T15:13:23;33.60;37.00
27671;DHT22;15077;49.704;9.908;2022-08-05T15:15:49;33.50;37.20
27671;DHT22;15077;49.704;9.908;2022-08-05T15:18:14;33.50;37.20
27671;DHT22;15077;49.704;9.908;2022-08-05T15:20:40;33.50;37.40
27671;DHT22;15077;49.704;9.908;2022-08-05T15:23:08;33.50;37.40
27671;DHT22;15077;49.704;9.908;2022-08-05T15:25:36;33.40;37.50
27671;DHT22;15077;49.704;9.908;2022-08-05T15:28:04;33.40;37.50
27671;DHT22;15077;49.704;9.908;2022-08-05T15:30:31;33.40;37.60
27671;DHT22;15077;49.704;9.908;2022-08-05T15:32:59;33.40;37.80
27671;DHT22;15077;49.704;9.908;2022-08-05T15:35:26;33.40;37.90
27671;DHT22;15077;49.704;9.908;2022-08-05T15:37:52;33.30;37.80
27671;DHT22;15077;49.704;9.908;2022-08-05T15:40:18;33.30;38.00
27671;DHT22;15077;49.704;9.908;2022-08-05T15:42:44;33.20;38.00
27671;DHT22;15077;49.704;9.908;2022-08-05T15:45:10;33.20;38.20
27671;DHT22;15077;49.704;9.908;2022-08-05T15:47:38;33.20;38.30
27671;DHT22;15077;49.704;9.908;2022-08-05T15:50:06;33.20;38.30
27671;DHT22;15077;49.704;9.908;2022-08-05T15:52:34;33.30;38.40
27671;DHT22;15077;49.704;9.908;2022-08-05T15:55:02;33.20;38.40
27671;DHT22;15077;49.704;9.908;2022-08-05T15:57:30;33.20;38.40
27671;DHT22;15077;49.704;9.908;2022-08-05T15:59:55;33.20;38.60
27671;DHT22;15077;49.704;9.908;2022-08-05T16:02:21;33.10;38.50
27671;DHT22;15077;49.704;9.908;2022-08-05T16:04:47;33.10;38.60
27671;DHT22;15077;49.704;9.908;2022-08-05T16:07:13;33.10;38.80